Flight Track Log - Related Links

Times and Time Zones

All times are in EDT time to prevent confusion due to time zone crossing. See the N173AA flight status page for this flight to view local times or setup timezone preferences in your user account.

Time Position Orientation Groundspeed Altitude Reporting Facility
EDT Latitude Longitude Course Direction KTS MPH feet Rate Location/Type
Fri 01:26:27 PM 29.6394 -95.2861 180° South 125 144 500  Level Houston Center
Fri 01:27:28 PM 29.6014 -95.2861 180° South 181 208 2,400 1,929 Climbing Houston Center
Fri 01:28:19 PM 29.6128 -95.2511 69° East 183 211 4,100 1,970 Climbing Houston Center
Fri 01:28:35 PM 29.6317 -95.2486 North 194 223 4,600 1,452 Climbing Houston Center
Fri 01:29:21 PM 29.6686 -95.2544 352° North 198 228 5,600 1,672 Climbing Houston Center
Fri 01:29:36 PM 29.6914 -95.2583 352° North 216 249 6,300 1,645 Climbing Houston Center
Fri 01:30:23 PM 29.7319 -95.2561 North 227 261 7,300 1,582 Climbing Houston Center
Fri 01:31:26 PM 29.7939 -95.2747 345° North 229 264 9,200 1,968 Climbing Houston Center
Fri 01:32:28 PM 29.8692 -95.2792 357° North 225 259 11,400 1,984 Climbing Houston Center
Fri 01:33:30 PM 29.9319 -95.2731 North 226 260 13,300 1,645 Climbing Houston Center
Fri 01:34:32 PM 29.9908 -95.2622 North 219 252 14,800 1,403 Climbing Houston Center
Fri 01:35:34 PM 30.0361 -95.2103 45° Northeast 232 267 16,200 1,152 Climbing Houston Center
Fri 01:36:37 PM 30.0825 -95.1544 46° Northeast 237 273 17,200 768 Climbing Houston Center
Fri 01:37:39 PM 30.1331 -95.0936 46° Northeast 256 295 17,800 823 Climbing Houston Center
Fri 01:38:41 PM 30.1969 -95.0161 46° Northeast 273 314 18,900 1,016 Climbing Houston Center
Fri 01:39:43 PM 30.2536 -94.9478 46° Northeast 287 330 19,900 919 Climbing Houston Center
Fri 01:40:45 PM 30.3094 -94.8803 46° Northeast 290 334 20,800 1,065 Climbing Houston Center
Fri 01:41:47 PM 30.3664 -94.8117 46° Northeast 294 338 22,100 1,258 Climbing Houston Center
Fri 01:42:49 PM 30.4217 -94.7467 45° Northeast 288 331 23,400 1,344 Climbing Houston Center
Fri 01:43:52 PM 30.4817 -94.6656 49° Northeast 280 322 24,900 1,248 Climbing Houston Center
Fri 01:44:54 PM 30.5350 -94.5983 47° Northeast 283 326 26,000 968 Climbing Houston Center
Fri 01:45:56 PM 30.5886 -94.5300 48° Northeast 286 329 26,900 823 Climbing Houston Center
Fri 01:46:58 PM 30.6433 -94.4603 48° Northeast 293 337 27,700 774 Climbing Houston Center
Fri 01:48:00 PM 30.7006 -94.3886 47° Northeast 300 345 28,500 823 Climbing Houston Center
Fri 01:49:02 PM 30.7678 -94.2964 50° Northeast 307 353 29,400 816 Climbing Houston Center
Fri 01:50:05 PM 30.8247 -94.2211 49° Northeast 310 357 30,200 768 Climbing Houston Center
Fri 01:51:07 PM 30.8811 -94.1472 48° Northeast 306 352 31,000 774 Climbing Houston Center
Fri 01:52:09 PM 30.9083 -94.0511 72° East 312 359 31,800 726 Climbing Houston Center
Fri 01:53:11 PM 30.9258 -93.9494 79° East 317 365 32,500 532 Climbing Houston Center
Fri 01:54:13 PM 30.9497 -93.8492 74° East 320 368 32,900 242 Climbing Houston Center
Fri 01:55:15 PM 30.9725 -93.7442 76° East 331 381 33,000 48 Climbing Houston Center
Fri 01:56:17 PM 31.0031 -93.6089 75° East 356 410 33,000  Level Houston Center
Fri 01:57:20 PM 31.0303 -93.4936 75° East 367 422 33,000  Level Houston Center
Fri 01:58:22 PM 31.0597 -93.3756 74° East 376 433 33,000  Level Houston Center
Fri 01:59:24 PM 31.0883 -93.2561 74° East 380 437 33,000  Level Houston Center
Fri 02:00:26 PM 31.1164 -93.1356 75° East 383 441 33,000  Level Houston Center
Fri 02:01:28 PM 31.1428 -93.0136 76° East 388 447 33,000  Level Houston Center
Fri 02:02:30 PM 31.1753 -92.8678 75° East 388 447 33,000  Level Houston Center
Fri 02:03:32 PM 31.2017 -92.7464 76° East 386 444 33,000  Level Houston Center
Fri 02:04:35 PM 31.2278 -92.6233 76° East 390 449 33,000  Level Houston Center
Fri 02:05:37 PM 31.2558 -92.4997 75° East 394 453 33,000  Level Houston Center
Fri 02:06:39 PM 31.2628 -92.3728 86° East 402 463 33,000  Level Houston Center
Fri 02:07:41 PM 31.2597 -92.2467 92° East 389 448 33,000  Level Houston Center
Fri 02:08:43 PM 31.2653 -92.0939 88° East 392 451 33,000  Level Houston Center
Fri 02:09:45 PM 31.2672 -91.9636 89° East 394 453 33,000  Level Houston Center
Fri 02:10:47 PM 31.2722 -91.8356 87° East 394 453 33,000  Level Houston Center
Fri 02:11:49 PM 31.2753 -91.7081 88° East 394 453 33,000  Level Houston Center
Fri 02:12:52 PM 31.2786 -91.5806 88° East 394 453 33,000  Level Houston Center
Fri 02:13:54 PM 31.2794 -91.4528 90° East 393 452 33,000  Level Houston Center
Fri 02:14:56 PM 31.2839 -91.3006 88° East 392 451 33,000  Level Houston Center
Fri 02:15:58 PM 31.2858 -91.1731 89° East 393 452 33,000  Level Houston Center
Fri 02:17:00 PM 31.2892 -91.0381 88° East 395 455 33,000  Level Houston Center
Fri 02:18:02 PM 31.2914 -90.9100 89° East 394 453 33,000  Level Houston Center
Fri 02:19:04 PM 31.2947 -90.7819 88° East 393 452 33,000  Level Houston Center
Fri 02:20:06 PM 31.2969 -90.6519 89° East 397 457 33,000  Level Houston Center
Fri 02:21:08 PM 31.2969 -90.5247 90° East 393 452 33,000  Level Houston Center
Fri 02:22:11 PM 31.2992 -90.3958 89° East 394 453 33,000 -48 Level Houston Center
Fri 02:23:13 PM 31.3025 -90.2419 89° East 395 455 32,900  Descending Houston Center
Fri 02:24:15 PM 31.3436 -90.1256 68° East 388 447 33,000 48 Climbing Houston Center
Fri 02:25:17 PM 31.3931 -90.0172 62° Northeast 379 436 33,000  Level Houston Center
Fri 02:26:19 PM 31.4408 -89.9056 63° Northeast 382 440 33,000  Level Houston Center
Fri 02:27:21 PM 31.4892 -89.7931 63° Northeast 385 443 33,000  Level Houston Center
Fri 02:28:23 PM 31.5350 -89.6794 65° Northeast 385 443 33,000  Level Houston Center
Fri 02:29:25 PM 31.5903 -89.5428 65° Northeast 386 444 33,000  Level Houston Center
Fri 02:30:28 PM 31.6372 -89.4261 65° Northeast 388 447 33,000  Level Houston Center
Fri 02:31:09 PM 31.6617 -89.3544 68° East 383 441 33,000  Level Memphis Center
Fri 02:32:09 PM 31.7108 -89.2367 64° Northeast 388 447 33,000  Level Memphis Center
Fri 02:33:09 PM 31.7514 -89.1261 67° East 380 437 33,000  Level Memphis Center
Fri 02:34:09 PM 31.7983 -89.0106 64° Northeast 380 437 33,000  Level Memphis Center
Fri 02:35:09 PM 31.8450 -88.8950 65° Northeast 380 437 33,000  Level Memphis Center
Fri 02:36:40 PM 31.9161 -88.7100 66° East 386 444 33,000  Level Houston Center
Fri 02:37:29 PM 31.9539 -88.6208 63° Northeast 386 444 33,000  Level Atlanta Center
Fri 02:38:29 PM 31.9997 -88.5033 65° Northeast 386 444 33,000 -50 Level Atlanta Center
Fri 02:39:29 PM 32.0436 -88.3903 65° Northeast 386 444 32,900  Descending Atlanta Center
Fri 02:40:29 PM 32.0892 -88.2747 65° Northeast 386 444 33,000 50 Climbing Atlanta Center
Fri 02:41:29 PM 32.1308 -88.1567 67° East 386 444 33,000  Level Atlanta Center
Fri 02:42:29 PM 32.1744 -88.0408 66° East 386 444 33,000  Level Atlanta Center
Fri 02:43:29 PM 32.2197 -87.9250 65° Northeast 386 444 33,000  Level Atlanta Center
Fri 02:44:29 PM 32.2650 -87.8092 65° Northeast 386 444 33,000  Level Atlanta Center
Fri 02:45:29 PM 32.3103 -87.6956 65° Northeast 386 444 33,000  Level Atlanta Center
Fri 02:46:29 PM 32.3533 -87.5794 66° East 381 438 33,000  Level Atlanta Center
Fri 02:47:29 PM 32.3961 -87.4656 66° East 381 438 33,000 -50 Level Atlanta Center
Fri 02:48:29 PM 32.4350 -87.3414 70° East 381 438 32,900 -50 Descending Atlanta Center
Fri 02:49:29 PM 32.4797 -87.2250 65° Northeast 388 447 32,900 50 Level Atlanta Center
Fri 02:50:29 PM 32.5225 -87.1108 66° East 388 447 33,000 50 Climbing Atlanta Center
Fri 02:51:29 PM 32.5692 -86.9964 64° Northeast 388 447 33,000  Level Atlanta Center
Fri 02:52:29 PM 32.6072 -86.8869 68° East 371 427 33,000  Level Atlanta Center
Fri 02:53:29 PM 32.6517 -86.7675 66° East 377 434 33,000  Level Atlanta Center
Fri 02:54:29 PM 32.6981 -86.6478 65° Northeast 377 434 33,000  Level Atlanta Center
Fri 02:55:29 PM 32.7378 -86.5331 68° East 377 434 33,000  Level Atlanta Center
Fri 02:56:29 PM 32.7819 -86.4131 66° East 377 434 33,000  Level Atlanta Center
Fri 02:57:29 PM 32.8261 -86.2908 67° East 389 448 33,000  Level Atlanta Center
Fri 02:58:29 PM 32.8678 -86.1731 67° East 389 448 33,000 -50 Level Atlanta Center
Fri 02:59:29 PM 32.9094 -86.0553 67° East 389 448 32,900  Descending Atlanta Center
Fri 03:00:29 PM 32.9531 -85.9325 67° East 394 453 33,000 50 Climbing Atlanta Center
Fri 03:01:29 PM 32.9967 -85.8147 66° East 388 447 33,000  Level Atlanta Center
Fri 03:02:29 PM 33.0381 -85.6967 67° East 388 447 33,000 -50 Level Atlanta Center
Fri 03:03:29 PM 33.0792 -85.5758 68° East 388 447 32,900  Descending Atlanta Center
Fri 03:04:29 PM 33.1136 -85.4797 67° East 393 452 33,000 50 Climbing Atlanta Center
Fri 03:05:29 PM 33.1611 -85.3489 67° East 388 447 33,000  Level Atlanta Center
Fri 03:06:29 PM 33.2042 -85.2331 66° East 388 447 33,000  Level Atlanta Center
Fri 03:07:29 PM 33.2447 -85.1094 69° East 394 453 33,000  Level Atlanta Center
Fri 03:08:29 PM 33.2875 -84.9881 67° East 388 447 33,000  Level Atlanta Center
Fri 03:09:29 PM 33.3303 -84.8642 68° East 396 456 33,000  Level Atlanta Center
Fri 03:10:29 PM 33.3728 -84.7478 66° East 390 449 33,000  Level Atlanta Center
Fri 03:11:29 PM 33.4150 -84.6261 67° East 390 449 33,000  Level Atlanta Center
Fri 03:12:29 PM 33.4594 -84.4919 68° East 390 449 33,000  Level Atlanta Center
Fri 03:13:29 PM 33.5036 -84.3725 66° East 390 449 33,000  Level Atlanta Center
Fri 03:14:29 PM 33.5436 -84.2481 69° East 390 449 33,000  Level Atlanta Center
Fri 03:15:29 PM 33.5814 -84.1261 70° East 390 449 33,000  Level Atlanta Center
Fri 03:16:29 PM 33.6231 -84.0064 67° East 390 449 33,000  Level Atlanta Center
Fri 03:17:29 PM 33.6647 -83.8842 68° East 390 449 33,000  Level Atlanta Center
Fri 03:18:29 PM 33.7064 -83.7617 68° East 390 449 33,000  Level Atlanta Center
Fri 03:19:29 PM 33.7478 -83.6442 67° East 385 443 33,000  Level Atlanta Center
Fri 03:20:29 PM 33.7889 -83.5189 68° East 390 449 33,000 -50 Level Atlanta Center
Fri 03:21:29 PM 33.8281 -83.4011 68° East 384 442 32,900  Descending Atlanta Center
Fri 03:22:29 PM 33.8692 -83.2808 68° East 384 442 33,000 -100 Climbing Atlanta Center
Fri 03:23:29 PM 33.9100 -83.1578 68° East 384 442 32,700 -400 Descending Atlanta Center
Fri 03:24:29 PM 33.9467 -83.0372 70° East 390 449 32,200 -600 Descending Atlanta Center
Fri 03:25:29 PM 33.9872 -82.9089 69° East 396 456 31,500 -650 Descending Atlanta Center
Fri 03:26:29 PM 34.0281 -82.7956 66° East 401 461 30,900 -650 Descending Atlanta Center
Fri 03:27:29 PM 34.0703 -82.6644 69° East 406 467 30,200 -700 Descending Atlanta Center
Fri 03:28:29 PM 34.1106 -82.5383 69° East 406 467 29,500 -600 Descending Atlanta Center
Fri 03:29:29 PM 34.1486 -82.4122 70° East 406 467 29,000 -250 Descending Atlanta Center
Fri 03:30:29 PM 34.1908 -82.2883 68° East 401 461 29,000  Level Atlanta Center
Fri 03:31:29 PM 34.2308 -82.1644 69° East 395 455 29,000  Level Atlanta Center
Fri 03:32:29 PM 34.2683 -82.0406 70° East 389 448 29,000  Level Atlanta Center
Fri 03:33:29 PM 34.3081 -81.9164 69° East 389 448 29,000  Level Atlanta Center
Fri 03:34:29 PM 34.3456 -81.7944 70° East 389 448 29,000  Level Atlanta Center
Fri 03:35:29 PM 34.3850 -81.6678 69° East 389 448 29,000 -150 Level Atlanta Center
Fri 03:36:29 PM 34.4242 -81.5458 69° East 389 448 28,700 -600 Descending Atlanta Center
Fri 03:37:29 PM 34.4611 -81.4161 71° East 389 448 27,800 -800 Descending Atlanta Center
Fri 03:38:29 PM 34.5042 -81.2861 68° East 394 453 27,100 -400 Descending Atlanta Center
Fri 03:39:29 PM 34.5472 -81.1536 68° East 412 474 27,000 -50 Descending Atlanta Center
Fri 03:40:29 PM 34.5881 -81.0286 68° East 412 474 27,000  Level Atlanta Center
Fri 03:41:29 PM 34.6225 -80.9011 72° East 400 460 27,000  Level Atlanta Center
Fri 03:42:29 PM 34.6608 -80.7761 70° East 388 447 27,000  Level Atlanta Center
Fri 03:44:29 PM 34.7339 -80.5150 71° East 387 445 27,000  Level Washington Center
Fri 03:45:29 PM 34.7703 -80.3883 71° East 387 445 27,000  Level Washington Center
Fri 03:46:30 PM 34.8064 -80.2664 70° East 382 440 27,000  Level Washington Center
Fri 03:47:30 PM 34.8447 -80.1422 69° East 382 440 27,000  Level Washington Center
Fri 03:48:31 PM 34.8756 -80.0450 69° East 377 434 27,000 -198 Level Washington Center
Fri 03:49:31 PM 34.9181 -79.9081 69° East 382 440 26,600 -454 Descending Washington Center
Fri 03:50:30 PM 34.9558 -79.7833 70° East 388 447 26,100 -500 Descending Washington Center
Fri 03:51:31 PM 34.9978 -79.6564 68° East 388 447 25,600 -496 Descending Washington Center
Fri 03:52:31 PM 35.0311 -79.5311 72° East 388 447 25,100 -305 Descending Washington Center
Fri 03:53:29 PM 35.0686 -79.4061 70° East 388 447 25,000 -50 Descending Washington Center
Fri 03:54:30 PM 35.1039 -79.2833 71° East 383 441 25,000  Level Washington Center
Fri 03:55:31 PM 35.1389 -79.1606 71° East 383 441 25,000  Level Washington Center
Fri 03:56:31 PM 35.1739 -79.0350 71° East 383 441 25,000  Level Washington Center
Fri 03:57:30 PM 35.2086 -78.9144 71° East 383 441 25,000 -50 Level Washington Center
Fri 03:58:31 PM 35.2433 -78.7889 71° East 383 441 24,900 -298 Descending Washington Center
Fri 03:59:31 PM 35.2758 -78.6628 72° East 377 434 24,400 -712 Descending Washington Center
Fri 04:00:29 PM 35.3125 -78.5344 71° East 382 440 23,500 -1,100 Descending Washington Center
Fri 04:01:31 PM 35.3508 -78.4111 69° East 387 445 22,200 -1,570 Descending Washington Center
Fri 04:02:16 PM 35.3825 -78.3028 70° East 389 448 20,700 -1,600 Descending Washington Center
Fri 04:02:31 PM 35.3892 -78.2850 65° Northeast 387 445 20,600 -1,500 Descending Washington Center
Fri 04:03:04 PM 35.4142 -78.2017 70° East 391 450 19,500 -1,300 Descending Washington Center
Fri 04:03:31 PM 35.4253 -78.1614 71° East 387 445 19,300 -1,082 Descending Washington Center
Fri 04:04:05 PM 35.4478 -78.0831 71° East 385 443 18,400 -1,220 Descending Washington Center
Fri 04:04:30 PM 35.4614 -78.0400 69° East 381 438 18,100 -984 Descending Washington Center
Fri 04:05:06 PM 35.4836 -77.9669 69° East 348 400 17,400 -1,000 Descending Washington Center
Fri 04:05:30 PM 35.4928 -77.9236 75° East 342 394 17,100 -1,500 Descending Washington Center
Fri 04:06:06 PM 35.5086 -77.8578 74° East 343 395 15,900 -1,800 Descending Washington Center
Fri 04:06:30 PM 35.5181 -77.8019 78° East 311 358 15,300 -2,459 Descending Washington Center
Fri 04:07:07 PM 35.5275 -77.7436 79° East 325 374 13,400 -2,262 Descending Washington Center
Fri 04:07:31 PM 35.5406 -77.7133 62° Northeast 335 386 13,000 -929 Descending Washington Center
Fri 04:08:31 PM 35.5739 -77.5992 70° East 340 391 12,100 -900 Descending Washington Center

Login

Don't have an account? Register now (free) for customized features, flight alerts, and more!